Iliysk North Airport

Jump to: basic info | weather | comments

Related pages: nearby airports | nearby navaids

Basic information (top)

Location: lon 43.998299, lat 77.139099, elev 2,343 ft / 714 m msl
Status: small_airport

Weather (top)

Current conditions for Almaty Airport 39nm (72km) S (rec'd 2015/01/31 00:30Z):

UAAA 310030Z 20002MPS 0600 R23R/1600N R23L/1600N BR FU BKN100 M11/M14 Q1018 R23R/91//50 R23L/CLRD65 NOSIG

Airport forecast for Almaty Airport 39nm (72km) S (rec'd 2015/01/30 00:18Z):

TAF TAF UAAA 302300Z 3100/3124 16004MPS 0800 -SN BR FU BKN010 BKN100 TXM06/3108Z TNM16/3101Z 
      TEMPO 3100/3106 0200 FZFG VV001 
      BECMG 3107/3108 02005MPS 1500 
      TEMPO 3111/3115 0300 FZFG 
      TEMPO 3115/3124 0200 FZFG VV001

Latest comments (top)

No comments yet for Iliysk North Airport

More... (top)

See also NOTAMs and nearby airports and navaids, or visit the Iliysk North Airport page at the main OurAirports website..